sensor_id;sensor_type;location;lat;lon;timestamp;temperature;humidity
56336;DHT22;42241;53.510;10.170;2023-02-14T00:02:17;6.30;99.90
56336;DHT22;42241;53.510;10.170;2023-02-14T00:04:45;6.40;99.90
56336;DHT22;42241;53.510;10.170;2023-02-14T00:07:19;6.40;99.90
56336;DHT22;42241;53.510;10.170;2023-02-14T00:09:47;6.40;99.90
56336;DHT22;42241;53.510;10.170;2023-02-14T00:12:15;6.40;99.90
56336;DHT22;42241;53.510;10.170;2023-02-14T00:14:40;6.40;99.90
56336;DHT22;42241;53.510;10.170;2023-02-14T00:17:25;6.40;99.90
56336;DHT22;42241;53.510;10.170;2023-02-14T00:19:50;6.40;99.90
56336;DHT22;42241;53.510;10.170;2023-02-14T00:22:16;6.30;99.90
56336;DHT22;42241;53.510;10.170;2023-02-14T00:24:44;6.30;99.90
56336;DHT22;42241;53.510;10.170;2023-02-14T00:27:10;6.40;99.90
56336;DHT22;42241;53.510;10.170;2023-02-14T00:29:38;6.30;99.90
56336;DHT22;42241;53.510;10.170;2023-02-14T00:32:03;6.30;99.90
56336;DHT22;42241;53.510;10.170;2023-02-14T00:34:29;6.30;99.90
56336;DHT22;42241;53.510;10.170;2023-02-14T00:36:54;6.40;99.90
56336;DHT22;42241;53.510;10.170;2023-02-14T00:39:20;6.40;99.90
56336;DHT22;42241;53.510;10.170;2023-02-14T00:41:46;6.40;99.90
56336;DHT22;42241;53.510;10.170;2023-02-14T00:44:11;6.40;99.90
56336;DHT22;42241;53.510;10.170;2023-02-14T00:46:40;6.40;99.90
56336;DHT22;42241;53.510;10.170;2023-02-14T00:49:05;6.40;99.90
56336;DHT22;42241;53.510;10.170;2023-02-14T00:51:31;6.40;99.90
56336;DHT22;42241;53.510;10.170;2023-02-14T00:53:56;6.30;99.90
56336;DHT22;42241;53.510;10.170;2023-02-14T00:56:24;6.30;99.90
56336;DHT22;42241;53.510;10.170;2023-02-14T00:58:50;6.30;99.90
56336;DHT22;42241;53.510;10.170;2023-02-14T01:01:16;6.30;99.90
56336;DHT22;42241;53.510;10.170;2023-02-14T01:03:42;6.20;99.90
56336;DHT22;42241;53.510;10.170;2023-02-14T01:06:08;6.20;99.90
56336;DHT22;42241;53.510;10.170;2023-02-14T01:08:36;6.20;99.90
56336;DHT22;42241;53.510;10.170;2023-02-14T01:13:36;6.20;99.90
56336;DHT22;42241;53.510;10.170;2023-02-14T01:16:09;6.20;99.90
56336;DHT22;42241;53.510;10.170;2023-02-14T01:18:35;6.20;99.90
56336;DHT22;42241;53.510;10.170;2023-02-14T01:21:15;6.10;99.90
56336;DHT22;42241;53.510;10.170;2023-02-14T01:23:42;6.10;99.90
56336;DHT22;42241;53.510;10.170;2023-02-14T01:26:08;6.20;99.90
56336;DHT22;42241;53.510;10.170;2023-02-14T01:28:34;6.20;99.90
56336;DHT22;42241;53.510;10.170;2023-02-14T01:31:10;6.20;99.90
56336;DHT22;42241;53.510;10.170;2023-02-14T01:33:40;6.20;99.90
56336;DHT22;42241;53.510;10.170;2023-02-14T01:36:10;6.20;99.90
56336;DHT22;42241;53.510;10.170;2023-02-14T01:38:38;6.20;99.90
56336;DHT22;42241;53.510;10.170;2023-02-14T01:41:06;6.20;99.90
56336;DHT22;42241;53.510;10.170;2023-02-14T01:43:50;6.30;99.90
56336;DHT22;42241;53.510;10.170;2023-02-14T01:46:16;6.20;99.90
56336;DHT22;42241;53.510;10.170;2023-02-14T01:48:41;6.20;99.90
56336;DHT22;42241;53.510;10.170;2023-02-14T01:51:07;6.20;99.90
56336;DHT22;42241;53.510;10.170;2023-02-14T01:53:32;6.20;99.90
56336;DHT22;42241;53.510;10.170;2023-02-14T01:56:01;6.10;99.90
56336;DHT22;42241;53.510;10.170;2023-02-14T01:58:33;6.00;99.90
56336;DHT22;42241;53.510;10.170;2023-02-14T02:01:02;5.90;99.90
56336;DHT22;42241;53.510;10.170;2023-02-14T02:03:32;6.00;99.90
56336;DHT22;42241;53.510;10.170;2023-02-14T02:06:02;6.00;99.90
56336;DHT22;42241;53.510;10.170;2023-02-14T02:08:32;6.00;99.90
56336;DHT22;42241;53.510;10.170;2023-02-14T02:10:59;5.90;99.90
56336;DHT22;42241;53.510;10.170;2023-02-14T02:13:24;5.90;99.90
56336;DHT22;42241;53.510;10.170;2023-02-14T02:16:16;6.00;99.90
56336;DHT22;42241;53.510;10.170;2023-02-14T02:31:31;6.00;99.90
56336;DHT22;42241;53.510;10.170;2023-02-14T02:34:26;6.00;99.90
56336;DHT22;42241;53.510;10.170;2023-02-14T02:37:22;6.00;99.90
56336;DHT22;42241;53.510;10.170;2023-02-14T02:42:41;6.00;99.90
56336;DHT22;42241;53.510;10.170;2023-02-14T02:45:19;6.00;99.90
56336;DHT22;42241;53.510;10.170;2023-02-14T02:47:56;5.80;99.90
56336;DHT22;42241;53.510;10.170;2023-02-14T02:50:30;5.90;99.90
56336;DHT22;42241;53.510;10.170;2023-02-14T02:53:37;5.90;99.90
56336;DHT22;42241;53.510;10.170;2023-02-14T02:56:08;5.90;99.90
56336;DHT22;42241;53.510;10.170;2023-02-14T02:58:56;5.90;99.90
56336;DHT22;42241;53.510;10.170;2023-02-14T03:01:32;5.90;99.90
56336;DHT22;42241;53.510;10.170;2023-02-14T03:03:59;5.90;99.90
56336;DHT22;42241;53.510;10.170;2023-02-14T03:06:45;5.90;99.90
56336;DHT22;42241;53.510;10.170;2023-02-14T03:14:32;5.90;99.90
56336;DHT22;42241;53.510;10.170;2023-02-14T03:17:06;5.90;99.90
56336;DHT22;42241;53.510;10.170;2023-02-14T03:19:44;5.90;99.90
56336;DHT22;42241;53.510;10.170;2023-02-14T03:25:04;5.90;99.90
56336;DHT22;42241;53.510;10.170;2023-02-14T03:27:40;5.80;99.90
56336;DHT22;42241;53.510;10.170;2023-02-14T03:30:09;5.90;99.90
56336;DHT22;42241;53.510;10.170;2023-02-14T03:32:46;5.80;99.90
56336;DHT22;42241;53.510;10.170;2023-02-14T03:35:21;5.80;99.90
56336;DHT22;42241;53.510;10.170;2023-02-14T03:37:50;5.80;99.90
56336;DHT22;42241;53.510;10.170;2023-02-14T03:40:24;5.80;99.90
56336;DHT22;42241;53.510;10.170;2023-02-14T03:42:55;5.80;99.90
56336;DHT22;42241;53.510;10.170;2023-02-14T03:45:33;5.80;99.90
56336;DHT22;42241;53.510;10.170;2023-02-14T03:48:01;5.80;99.90
56336;DHT22;42241;53.510;10.170;2023-02-14T03:50:27;5.80;99.90
56336;DHT22;42241;53.510;10.170;2023-02-14T03:52:56;5.80;99.90
56336;DHT22;42241;53.510;10.170;2023-02-14T03:55:25;5.80;99.90
56336;DHT22;42241;53.510;10.170;2023-02-14T03:57:54;5.70;99.90
56336;DHT22;42241;53.510;10.170;2023-02-14T04:00:23;5.70;99.90
56336;DHT22;42241;53.510;10.170;2023-02-14T04:02:52;5.70;99.90
56336;DHT22;42241;53.510;10.170;2023-02-14T04:05:20;5.70;99.90
56336;DHT22;42241;53.510;10.170;2023-02-14T04:07:51;5.70;99.90
56336;DHT22;42241;53.510;10.170;2023-02-14T04:10:17;5.70;99.90
56336;DHT22;42241;53.510;10.170;2023-02-14T04:12:43;5.70;99.90
56336;DHT22;42241;53.510;10.170;2023-02-14T04:15:09;5.60;99.90
56336;DHT22;42241;53.510;10.170;2023-02-14T04:17:35;5.60;99.90
56336;DHT22;42241;53.510;10.170;2023-02-14T04:20:19;5.70;99.90
56336;DHT22;42241;53.510;10.170;2023-02-14T04:22:45;5.60;99.90
56336;DHT22;42241;53.510;10.170;2023-02-14T04:25:12;5.70;99.90
56336;DHT22;42241;53.510;10.170;2023-02-14T04:27:37;5.70;99.90
56336;DHT22;42241;53.510;10.170;2023-02-14T04:30:03;5.70;99.90
56336;DHT22;42241;53.510;10.170;2023-02-14T04:32:29;5.60;99.90
56336;DHT22;42241;53.510;10.170;2023-02-14T04:34:55;5.70;99.90
56336;DHT22;42241;53.510;10.170;2023-02-14T04:37:23;5.70;99.90
56336;DHT22;42241;53.510;10.170;2023-02-14T04:39:51;5.60;99.90
56336;DHT22;42241;53.510;10.170;2023-02-14T04:42:16;5.70;99.90
56336;DHT22;42241;53.510;10.170;2023-02-14T04:44:44;5.70;99.90
56336;DHT22;42241;53.510;10.170;2023-02-14T04:47:12;5.70;99.90
56336;DHT22;42241;53.510;10.170;2023-02-14T04:49:37;5.60;99.90
56336;DHT22;42241;53.510;10.170;2023-02-14T04:52:03;5.60;99.90
56336;DHT22;42241;53.510;10.170;2023-02-14T04:54:29;5.60;99.90
56336;DHT22;42241;53.510;10.170;2023-02-14T04:56:56;5.60;99.90
56336;DHT22;42241;53.510;10.170;2023-02-14T04:59:21;5.60;99.90
56336;DHT22;42241;53.510;10.170;2023-02-14T05:01:47;5.60;99.90
56336;DHT22;42241;53.510;10.170;2023-02-14T05:04:26;5.70;99.90
56336;DHT22;42241;53.510;10.170;2023-02-14T05:06:51;5.60;99.90
56336;DHT22;42241;53.510;10.170;2023-02-14T05:09:17;5.60;99.90
56336;DHT22;42241;53.510;10.170;2023-02-14T05:11:45;5.60;99.90
56336;DHT22;42241;53.510;10.170;2023-02-14T05:14:10;5.60;99.90
56336;DHT22;42241;53.510;10.170;2023-02-14T05:16:38;5.70;99.90
56336;DHT22;42241;53.510;10.170;2023-02-14T05:19:05;5.70;99.90
56336;DHT22;42241;53.510;10.170;2023-02-14T05:21:31;5.70;99.90
56336;DHT22;42241;53.510;10.170;2023-02-14T05:23:58;5.70;99.90
56336;DHT22;42241;53.510;10.170;2023-02-14T05:26:23;5.70;99.90
56336;DHT22;42241;53.510;10.170;2023-02-14T05:28:51;5.70;99.90
56336;DHT22;42241;53.510;10.170;2023-02-14T05:31:19;5.70;99.90
56336;DHT22;42241;53.510;10.170;2023-02-14T05:33:45;5.70;99.90
56336;DHT22;42241;53.510;10.170;2023-02-14T05:36:13;5.70;99.90
56336;DHT22;42241;53.510;10.170;2023-02-14T05:38:39;5.70;99.90
56336;DHT22;42241;53.510;10.170;2023-02-14T05:41:06;5.70;99.90
56336;DHT22;42241;53.510;10.170;2023-02-14T05:43:34;5.70;99.90
56336;DHT22;42241;53.510;10.170;2023-02-14T05:46:00;5.70;99.90
56336;DHT22;42241;53.510;10.170;2023-02-14T05:48:27;5.80;99.90
56336;DHT22;42241;53.510;10.170;2023-02-14T05:50:53;5.70;99.90
56336;DHT22;42241;53.510;10.170;2023-02-14T05:53:18;5.70;99.90
56336;DHT22;42241;53.510;10.170;2023-02-14T05:55:44;5.70;99.90
56336;DHT22;42241;53.510;10.170;2023-02-14T05:58:12;5.70;99.90
56336;DHT22;42241;53.510;10.170;2023-02-14T06:00:40;5.70;99.90
56336;DHT22;42241;53.510;10.170;2023-02-14T06:03:05;5.70;99.90
56336;DHT22;42241;53.510;10.170;2023-02-14T06:05:31;5.70;99.90
56336;DHT22;42241;53.510;10.170;2023-02-14T06:07:59;5.70;99.90
56336;DHT22;42241;53.510;10.170;2023-02-14T06:10:25;5.70;99.90
56336;DHT22;42241;53.510;10.170;2023-02-14T06:12:51;5.70;99.90
56336;DHT22;42241;53.510;10.170;2023-02-14T06:15:18;5.70;99.90
56336;DHT22;42241;53.510;10.170;2023-02-14T06:17:44;5.70;99.90
56336;DHT22;42241;53.510;10.170;2023-02-14T06:20:11;5.70;99.90
56336;DHT22;42241;53.510;10.170;2023-02-14T06:22:37;5.70;99.90
56336;DHT22;42241;53.510;10.170;2023-02-14T06:25:03;5.70;99.90
56336;DHT22;42241;53.510;10.170;2023-02-14T06:27:29;5.70;99.90
56336;DHT22;42241;53.510;10.170;2023-02-14T06:29:57;5.70;99.90
56336;DHT22;42241;53.510;10.170;2023-02-14T06:32:23;5.70;99.90
56336;DHT22;42241;53.510;10.170;2023-02-14T06:34:49;5.70;99.90
56336;DHT22;42241;53.510;10.170;2023-02-14T06:37:14;5.70;99.90
56336;DHT22;42241;53.510;10.170;2023-02-14T06:39:40;5.70;99.90
56336;DHT22;42241;53.510;10.170;2023-02-14T06:42:05;5.70;99.90
56336;DHT22;42241;53.510;10.170;2023-02-14T06:44:33;5.70;99.90
56336;DHT22;42241;53.510;10.170;2023-02-14T06:46:59;5.60;99.90
56336;DHT22;42241;53.510;10.170;2023-02-14T06:49:24;5.70;99.90
56336;DHT22;42241;53.510;10.170;2023-02-14T06:51:52;5.70;99.90
56336;DHT22;42241;53.510;10.170;2023-02-14T06:54:20;5.70;99.90
56336;DHT22;42241;53.510;10.170;2023-02-14T06:56:48;5.70;99.90
56336;DHT22;42241;53.510;10.170;2023-02-14T06:59:13;5.70;99.90
56336;DHT22;42241;53.510;10.170;2023-02-14T07:01:41;5.80;99.90
56336;DHT22;42241;53.510;10.170;2023-02-14T07:04:10;5.70;99.90
56336;DHT22;42241;53.510;10.170;2023-02-14T07:06:35;5.80;99.90
56336;DHT22;42241;53.510;10.170;2023-02-14T07:09:04;5.80;99.90
56336;DHT22;42241;53.510;10.170;2023-02-14T07:11:29;5.70;99.90
56336;DHT22;42241;53.510;10.170;2023-02-14T07:13:57;5.80;99.90
56336;DHT22;42241;53.510;10.170;2023-02-14T07:16:26;5.80;99.90
56336;DHT22;42241;53.510;10.170;2023-02-14T07:18:51;5.90;99.90
56336;DHT22;42241;53.510;10.170;2023-02-14T07:21:19;5.90;99.90
56336;DHT22;42241;53.510;10.170;2023-02-14T07:23:44;5.90;99.90
56336;DHT22;42241;53.510;10.170;2023-02-14T07:26:12;5.90;99.90
56336;DHT22;42241;53.510;10.170;2023-02-14T07:28:46;6.00;99.90
56336;DHT22;42241;53.510;10.170;2023-02-14T07:31:16;6.00;99.90
56336;DHT22;42241;53.510;10.170;2023-02-14T07:33:42;6.00;99.90
56336;DHT22;42241;53.510;10.170;2023-02-14T07:36:08;6.10;99.90
56336;DHT22;42241;53.510;10.170;2023-02-14T07:38:34;6.20;99.90
56336;DHT22;42241;53.510;10.170;2023-02-14T07:41:00;6.20;99.90
56336;DHT22;42241;53.510;10.170;2023-02-14T07:43:25;6.20;99.90
56336;DHT22;42241;53.510;10.170;2023-02-14T07:45:51;6.20;99.90
56336;DHT22;42241;53.510;10.170;2023-02-14T07:48:19;6.30;99.90
56336;DHT22;42241;53.510;10.170;2023-02-14T07:50:44;6.30;99.90
56336;DHT22;42241;53.510;10.170;2023-02-14T07:53:10;6.30;99.90
56336;DHT22;42241;53.510;10.170;2023-02-14T07:55:35;6.30;99.90
56336;DHT22;42241;53.510;10.170;2023-02-14T07:58:01;6.40;99.90
56336;DHT22;42241;53.510;10.170;2023-02-14T08:00:27;6.50;99.90
56336;DHT22;42241;53.510;10.170;2023-02-14T08:02:55;6.50;99.90
56336;DHT22;42241;53.510;10.170;2023-02-14T08:05:20;6.60;99.90
56336;DHT22;42241;53.510;10.170;2023-02-14T08:07:46;6.60;99.90
56336;DHT22;42241;53.510;10.170;2023-02-14T08:10:13;6.70;99.90
56336;DHT22;42241;53.510;10.170;2023-02-14T08:12:38;6.70;99.90
56336;DHT22;42241;53.510;10.170;2023-02-14T08:15:23;6.80;99.90
56336;DHT22;42241;53.510;10.170;2023-02-14T08:18:09;6.90;99.90
56336;DHT22;42241;53.510;10.170;2023-02-14T08:20:35;6.90;99.90
56336;DHT22;42241;53.510;10.170;2023-02-14T08:23:04;7.00;99.90
56336;DHT22;42241;53.510;10.170;2023-02-14T08:25:29;7.00;99.90
56336;DHT22;42241;53.510;10.170;2023-02-14T08:27:55;7.00;99.90
56336;DHT22;42241;53.510;10.170;2023-02-14T08:30:21;7.00;99.90
56336;DHT22;42241;53.510;10.170;2023-02-14T08:32:46;7.00;99.90
56336;DHT22;42241;53.510;10.170;2023-02-14T08:35:14;7.10;99.90
56336;DHT22;42241;53.510;10.170;2023-02-14T08:37:40;7.20;99.90
56336;DHT22;42241;53.510;10.170;2023-02-14T08:40:05;7.20;99.90
56336;DHT22;42241;53.510;10.170;2023-02-14T08:42:31;7.30;99.90
56336;DHT22;42241;53.510;10.170;2023-02-14T08:44:57;7.30;99.90
56336;DHT22;42241;53.510;10.170;2023-02-14T08:47:25;7.40;99.90
56336;DHT22;42241;53.510;10.170;2023-02-14T08:49:53;7.50;99.90
56336;DHT22;42241;53.510;10.170;2023-02-14T08:52:18;7.50;99.90
56336;DHT22;42241;53.510;10.170;2023-02-14T08:54:49;7.50;99.90
56336;DHT22;42241;53.510;10.170;2023-02-14T08:57:14;7.60;99.90
56336;DHT22;42241;53.510;10.170;2023-02-14T08:59:40;7.70;99.90
56336;DHT22;42241;53.510;10.170;2023-02-14T09:02:09;7.90;99.90
56336;DHT22;42241;53.510;10.170;2023-02-14T09:04:35;8.30;99.90
56336;DHT22;42241;53.510;10.170;2023-02-14T09:07:01;9.00;99.90
56336;DHT22;42241;53.510;10.170;2023-02-14T09:09:28;9.70;99.90
56336;DHT22;42241;53.510;10.170;2023-02-14T09:11:54;10.30;99.90
56336;DHT22;42241;53.510;10.170;2023-02-14T09:14:22;10.20;99.90
56336;DHT22;42241;53.510;10.170;2023-02-14T09:16:51;10.70;99.90
56336;DHT22;42241;53.510;10.170;2023-02-14T09:19:16;11.20;99.90
56336;DHT22;42241;53.510;10.170;2023-02-14T09:21:44;11.90;99.90
56336;DHT22;42241;53.510;10.170;2023-02-14T09:24:10;12.20;99.90
56336;DHT22;42241;53.510;10.170;2023-02-14T09:26:36;11.90;99.90
56336;DHT22;42241;53.510;10.170;2023-02-14T09:29:06;11.40;99.90
56336;DHT22;42241;53.510;10.170;2023-02-14T09:31:31;11.50;99.90
56336;DHT22;42241;53.510;10.170;2023-02-14T09:33:57;11.90;99.90
56336;DHT22;42241;53.510;10.170;2023-02-14T09:36:43;12.80;99.90
56336;DHT22;42241;53.510;10.170;2023-02-14T09:39:09;14.70;99.90
56336;DHT22;42241;53.510;10.170;2023-02-14T09:46:45;16.60;99.90
56336;DHT22;42241;53.510;10.170;2023-02-14T09:49:16;15.90;99.90
56336;DHT22;42241;53.510;10.170;2023-02-14T09:51:47;14.60;99.90
56336;DHT22;42241;53.510;10.170;2023-02-14T09:54:15;14.10;99.90
56336;DHT22;42241;53.510;10.170;2023-02-14T09:59:30;16.30;99.90
56336;DHT22;42241;53.510;10.170;2023-02-14T10:05:09;17.20;99.90
56336;DHT22;42241;53.510;10.170;2023-02-14T10:07:42;19.10;99.90
56336;DHT22;42241;53.510;10.170;2023-02-14T10:15:55;21.20;80.30
56336;DHT22;42241;53.510;10.170;2023-02-14T10:18:27;22.50;78.10
56336;DHT22;42241;53.510;10.170;2023-02-14T10:20:57;22.80;72.50
56336;DHT22;42241;53.510;10.170;2023-02-14T10:26:08;22.30;73.80
56336;DHT22;42241;53.510;10.170;2023-02-14T10:28:39;22.50;69.60
56336;DHT22;42241;53.510;10.170;2023-02-14T10:33:38;23.00;60.60
56336;DHT22;42241;53.510;10.170;2023-02-14T10:39:11;22.90;62.30
56336;DHT22;42241;53.510;10.170;2023-02-14T10:54:56;24.60;58.90
56336;DHT22;42241;53.510;10.170;2023-02-14T10:57:26;25.40;55.10
56336;DHT22;42241;53.510;10.170;2023-02-14T11:00:00;25.90;56.00
56336;DHT22;42241;53.510;10.170;2023-02-14T11:02:30;24.90;51.50
56336;DHT22;42241;53.510;10.170;2023-02-14T11:04:59;23.10;53.50
56336;DHT22;42241;53.510;10.170;2023-02-14T11:07:26;23.40;58.00
56336;DHT22;42241;53.510;10.170;2023-02-14T11:09:55;24.90;55.00
56336;DHT22;42241;53.510;10.170;2023-02-14T11:12:33;24.80;52.70
56336;DHT22;42241;53.510;10.170;2023-02-14T11:17:43;25.10;56.00
56336;DHT22;42241;53.510;10.170;2023-02-14T11:22:43;25.20;53.20
56336;DHT22;42241;53.510;10.170;2023-02-14T11:27:50;25.70;50.80
56336;DHT22;42241;53.510;10.170;2023-02-14T11:30:19;25.90;52.00
56336;DHT22;42241;53.510;10.170;2023-02-14T11:32:49;25.60;51.00
56336;DHT22;42241;53.510;10.170;2023-02-14T11:35:20;24.00;51.00
56336;DHT22;42241;53.510;10.170;2023-02-14T11:37:51;23.60;53.50
56336;DHT22;42241;53.510;10.170;2023-02-14T11:42:49;23.20;57.30
56336;DHT22;42241;53.510;10.170;2023-02-14T11:45:25;23.30;56.00
56336;DHT22;42241;53.510;10.170;2023-02-14T11:48:05;23.80;56.70
56336;DHT22;42241;53.510;10.170;2023-02-14T11:50:33;25.00;53.20
56336;DHT22;42241;53.510;10.170;2023-02-14T11:53:00;25.10;52.30
56336;DHT22;42241;53.510;10.170;2023-02-14T11:55:27;24.30;52.70
56336;DHT22;42241;53.510;10.170;2023-02-14T11:57:53;23.00;55.10
56336;DHT22;42241;53.510;10.170;2023-02-14T12:00:20;23.10;55.20
56336;DHT22;42241;53.510;10.170;2023-02-14T12:02:46;23.40;56.10
56336;DHT22;42241;53.510;10.170;2023-02-14T12:05:17;23.30;55.80
56336;DHT22;42241;53.510;10.170;2023-02-14T12:07:44;23.40;57.10
56336;DHT22;42241;53.510;10.170;2023-02-14T12:12:36;24.90;54.60
56336;DHT22;42241;53.510;10.170;2023-02-14T12:16:02;25.80;52.60
56336;DHT22;42241;53.510;10.170;2023-02-14T12:20:40;25.30;52.40
56336;DHT22;42241;53.510;10.170;2023-02-14T12:23:22;24.60;52.40
56336;DHT22;42241;53.510;10.170;2023-02-14T12:25:49;24.90;51.80
56336;DHT22;42241;53.510;10.170;2023-02-14T12:28:37;24.90;50.40
56336;DHT22;42241;53.510;10.170;2023-02-14T12:31:09;24.60;51.80
56336;DHT22;42241;53.510;10.170;2023-02-14T12:33:38;24.60;53.90
56336;DHT22;42241;53.510;10.170;2023-02-14T12:43:54;26.20;50.80
56336;DHT22;42241;53.510;10.170;2023-02-14T13:09:47;22.00;53.30
56336;DHT22;42241;53.510;10.170;2023-02-14T13:15:00;21.50;56.90
56336;DHT22;42241;53.510;10.170;2023-02-14T13:22:39;20.70;57.60
56336;DHT22;42241;53.510;10.170;2023-02-14T13:25:12;21.30;59.70
56336;DHT22;42241;53.510;10.170;2023-02-14T13:27:39;21.10;59.50
56336;DHT22;42241;53.510;10.170;2023-02-14T13:30:07;20.50;64.10
56336;DHT22;42241;53.510;10.170;2023-02-14T13:32:38;20.20;64.50
56336;DHT22;42241;53.510;10.170;2023-02-14T13:35:07;18.20;67.70
56336;DHT22;42241;53.510;10.170;2023-02-14T13:37:33;16.80;78.40
56336;DHT22;42241;53.510;10.170;2023-02-14T13:50:48;17.80;87.00
56336;DHT22;42241;53.510;10.170;2023-02-14T13:53:27;17.20;88.40
56336;DHT22;42241;53.510;10.170;2023-02-14T13:55:53;16.60;91.10
56336;DHT22;42241;53.510;10.170;2023-02-14T13:58:20;16.60;91.50
56336;DHT22;42241;53.510;10.170;2023-02-14T14:00:46;16.70;90.90
56336;DHT22;42241;53.510;10.170;2023-02-14T14:18:44;15.00;99.90
56336;DHT22;42241;53.510;10.170;2023-02-14T14:29:00;13.70;99.90
56336;DHT22;42241;53.510;10.170;2023-02-14T14:31:26;13.30;99.90
56336;DHT22;42241;53.510;10.170;2023-02-14T14:34:00;13.20;99.90
56336;DHT22;42241;53.510;10.170;2023-02-14T14:36:25;13.20;99.90
56336;DHT22;42241;53.510;10.170;2023-02-14T14:38:51;13.00;99.90
56336;DHT22;42241;53.510;10.170;2023-02-14T14:41:18;13.00;99.90
56336;DHT22;42241;53.510;10.170;2023-02-14T14:43:44;12.90;99.90
56336;DHT22;42241;53.510;10.170;2023-02-14T14:46:13;12.90;99.90
56336;DHT22;42241;53.510;10.170;2023-02-14T14:48:50;12.90;99.90
56336;DHT22;42241;53.510;10.170;2023-02-14T14:51:29;12.80;99.90
56336;DHT22;42241;53.510;10.170;2023-02-14T14:56:25;12.80;99.90
56336;DHT22;42241;53.510;10.170;2023-02-14T14:58:54;12.80;99.90
56336;DHT22;42241;53.510;10.170;2023-02-14T15:01:38;12.70;99.90
56336;DHT22;42241;53.510;10.170;2023-02-14T15:06:38;12.50;99.90
56336;DHT22;42241;53.510;10.170;2023-02-14T15:09:38;12.50;99.90
56336;DHT22;42241;53.510;10.170;2023-02-14T15:11:59;12.50;99.90
56336;DHT22;42241;53.510;10.170;2023-02-14T15:14:45;12.50;99.90
56336;DHT22;42241;53.510;10.170;2023-02-14T15:17:21;12.50;99.90
56336;DHT22;42241;53.510;10.170;2023-02-14T15:19:52;12.50;99.90
56336;DHT22;42241;53.510;10.170;2023-02-14T15:22:28;12.30;99.90
56336;DHT22;42241;53.510;10.170;2023-02-14T15:24:57;12.30;99.90
56336;DHT22;42241;53.510;10.170;2023-02-14T15:27:25;12.30;99.90
56336;DHT22;42241;53.510;10.170;2023-02-14T15:29:52;12.10;99.90
56336;DHT22;42241;53.510;10.170;2023-02-14T15:32:20;12.00;99.90
56336;DHT22;42241;53.510;10.170;2023-02-14T15:34:45;11.90;99.90
56336;DHT22;42241;53.510;10.170;2023-02-14T15:37:12;11.80;99.90
56336;DHT22;42241;53.510;10.170;2023-02-14T15:39:42;11.90;99.90
56336;DHT22;42241;53.510;10.170;2023-02-14T15:47:36;12.00;99.90
56336;DHT22;42241;53.510;10.170;2023-02-14T15:50:02;11.90;99.90
56336;DHT22;42241;53.510;10.170;2023-02-14T15:52:30;11.80;99.90
56336;DHT22;42241;53.510;10.170;2023-02-14T15:54:58;11.80;99.90
56336;DHT22;42241;53.510;10.170;2023-02-14T15:57:23;11.60;99.90
56336;DHT22;42241;53.510;10.170;2023-02-14T15:59:52;11.40;99.90
56336;DHT22;42241;53.510;10.170;2023-02-14T16:02:33;11.30;99.90
56336;DHT22;42241;53.510;10.170;2023-02-14T16:05:24;11.20;99.90
56336;DHT22;42241;53.510;10.170;2023-02-14T16:08:02;11.20;99.90
56336;DHT22;42241;53.510;10.170;2023-02-14T16:10:33;11.10;99.90
56336;DHT22;42241;53.510;10.170;2023-02-14T16:13:03;11.10;99.90
56336;DHT22;42241;53.510;10.170;2023-02-14T16:15:34;11.00;99.90
56336;DHT22;42241;53.510;10.170;2023-02-14T16:18:03;11.00;99.90
56336;DHT22;42241;53.510;10.170;2023-02-14T16:20:41;10.90;99.90
56336;DHT22;42241;53.510;10.170;2023-02-14T16:25:49;10.70;99.90
56336;DHT22;42241;53.510;10.170;2023-02-14T16:28:17;10.60;99.90
56336;DHT22;42241;53.510;10.170;2023-02-14T16:30:51;10.50;99.90
56336;DHT22;42241;53.510;10.170;2023-02-14T16:33:19;10.40;99.90
56336;DHT22;42241;53.510;10.170;2023-02-14T16:35:45;10.30;99.90
56336;DHT22;42241;53.510;10.170;2023-02-14T16:38:14;10.30;99.90
56336;DHT22;42241;53.510;10.170;2023-02-14T16:40:44;10.20;99.90
56336;DHT22;42241;53.510;10.170;2023-02-14T16:43:14;10.10;99.90
56336;DHT22;42241;53.510;10.170;2023-02-14T16:45:42;10.10;99.90
56336;DHT22;42241;53.510;10.170;2023-02-14T16:48:08;9.90;99.90
56336;DHT22;42241;53.510;10.170;2023-02-14T16:50:35;9.90;99.90
56336;DHT22;42241;53.510;10.170;2023-02-14T16:53:01;9.70;99.90
56336;DHT22;42241;53.510;10.170;2023-02-14T16:55:28;9.60;99.90
56336;DHT22;42241;53.510;10.170;2023-02-14T16:57:54;9.60;99.90
56336;DHT22;42241;53.510;10.170;2023-02-14T17:00:22;9.40;99.90
56336;DHT22;42241;53.510;10.170;2023-02-14T17:02:48;9.20;99.90
56336;DHT22;42241;53.510;10.170;2023-02-14T17:05:18;9.20;99.90
56336;DHT22;42241;53.510;10.170;2023-02-14T17:07:48;9.00;99.90
56336;DHT22;42241;53.510;10.170;2023-02-14T17:10:17;9.00;99.90
56336;DHT22;42241;53.510;10.170;2023-02-14T17:12:44;9.00;99.90
56336;DHT22;42241;53.510;10.170;2023-02-14T17:15:14;8.90;99.90
56336;DHT22;42241;53.510;10.170;2023-02-14T17:17:43;8.80;99.90
56336;DHT22;42241;53.510;10.170;2023-02-14T17:20:10;8.80;99.90
56336;DHT22;42241;53.510;10.170;2023-02-14T17:22:36;8.70;99.90
56336;DHT22;42241;53.510;10.170;2023-02-14T17:25:02;8.60;99.90
56336;DHT22;42241;53.510;10.170;2023-02-14T17:27:29;8.60;99.90
56336;DHT22;42241;53.510;10.170;2023-02-14T17:29:55;8.60;99.90
56336;DHT22;42241;53.510;10.170;2023-02-14T17:32:24;8.50;99.90
56336;DHT22;42241;53.510;10.170;2023-02-14T17:34:52;8.50;99.90
56336;DHT22;42241;53.510;10.170;2023-02-14T17:37:17;8.40;99.90
56336;DHT22;42241;53.510;10.170;2023-02-14T17:39:43;8.40;99.90
56336;DHT22;42241;53.510;10.170;2023-02-14T17:42:09;8.30;99.90
56336;DHT22;42241;53.510;10.170;2023-02-14T17:44:34;8.20;99.90
56336;DHT22;42241;53.510;10.170;2023-02-14T17:47:02;8.20;99.90
56336;DHT22;42241;53.510;10.170;2023-02-14T17:49:32;8.30;99.90
56336;DHT22;42241;53.510;10.170;2023-02-14T17:52:01;8.30;99.90
56336;DHT22;42241;53.510;10.170;2023-02-14T17:54:27;8.20;99.90
56336;DHT22;42241;53.510;10.170;2023-02-14T17:56:52;8.30;99.90
56336;DHT22;42241;53.510;10.170;2023-02-14T17:59:18;8.20;99.90
56336;DHT22;42241;53.510;10.170;2023-02-14T18:01:43;8.20;99.90
56336;DHT22;42241;53.510;10.170;2023-02-14T18:04:14;8.20;99.90
56336;DHT22;42241;53.510;10.170;2023-02-14T18:06:42;8.20;99.90
56336;DHT22;42241;53.510;10.170;2023-02-14T18:09:08;8.20;99.90
56336;DHT22;42241;53.510;10.170;2023-02-14T18:11:37;8.30;99.90
56336;DHT22;42241;53.510;10.170;2023-02-14T18:14:02;8.20;99.90
56336;DHT22;42241;53.510;10.170;2023-02-14T18:16:28;8.20;99.90
56336;DHT22;42241;53.510;10.170;2023-02-14T18:19:00;8.20;99.90
56336;DHT22;42241;53.510;10.170;2023-02-14T18:21:25;8.20;99.90
56336;DHT22;42241;53.510;10.170;2023-02-14T18:23:50;8.20;99.90